Terminal Aerodrome Forecast
Issued by NWS

Home | Current Version | Previous Version | Text Only | Print | Product List | Glossary On
Versions: 1 2 3 4 5 6 7 8 9 10 11 12 13 14 15
997
FTUS43 KAPX 282005 AAB
TAFPLN
TAF AMD
KPLN 282005Z 2820/2918 VRB03KT P6SM -SHRA OVC008
     FM282100 VRB03KT P6SM BKN008
      TEMPO 2821/2822 BKN040
     FM290000 VRB03KT P6SM BKN040
     FM290300 VRB03KT 4SM BR BKN030
     FM290900 23005KT P6SM BKN030
     FM291300 23008KT P6SM VCSH BKN060=

USA.gov is the U.S. government's official web portal to all federal, state and local government web resources and services.